Time;durP1;ratioP1;P1;durP2;ratioP2;P2;SDS_P1;SDS_P2;PMS_P1;PMS_P2;Temp;Humidity;BMP_temperature;BMP_pressure;BME280_temperature;BME280_humidity;BME280_pressure;Samples;Min_cycle;Max_cycle;Signal;HPM_P1;HPM_P2
2023/12/11 00:00:43;;;;;;;14.70;6.53;;;9.10;99.90;;;;;;4879521;28;94190;-30
2023/12/11 00:03:09;;;;;;;19.30;5.85;;;9.10;99.90;;;;;;4878579;28;95246;-33
2023/12/11 00:05:38;;;;;;;21.73;6.50;;;9.20;99.90;;;;;;4878824;28;93401;-34
2023/12/11 00:08:04;;;;;;;19.20;6.03;;;9.10;99.90;;;;;;4878603;28;93334;-33
2023/12/11 00:10:29;;;;;;;30.33;7.38;;;9.10;99.90;;;;;;4879908;28;95369;-34
2023/12/11 00:12:55;;;;;;;24.23;8.88;;;9.10;99.90;;;;;;4879500;28;93095;-34
2023/12/11 00:15:21;;;;;;;31.50;8.77;;;9.10;99.90;;;;;;4879763;28;94371;-34
2023/12/11 00:17:47;;;;;;;19.52;7.65;;;9.10;99.90;;;;;;4879075;28;96529;-32
2023/12/11 00:20:13;;;;;;;22.35;7.15;;;9.10;99.90;;;;;;4878952;28;95298;-32
2023/12/11 00:22:38;;;;;;;16.35;6.60;;;9.10;99.90;;;;;;4879738;28;95050;-31
2023/12/11 00:25:05;;;;;;;26.98;6.25;;;9.10;99.90;;;;;;4879124;28;94321;-32
2023/12/11 00:27:30;;;;;;;23.77;6.07;;;9.10;99.90;;;;;;4879059;28;95032;-30
2023/12/11 00:29:57;;;;;;;16.85;6.50;;;9.00;99.90;;;;;;4879156;28;94009;-33
2023/12/11 00:32:23;;;;;;;17.38;6.25;;;9.00;99.90;;;;;;4879097;28;93785;-32
2023/12/11 00:34:49;;;;;;;22.45;6.05;;;9.00;99.90;;;;;;4879427;28;92665;-31
2023/12/11 00:37:14;;;;;;;20.55;7.90;;;9.00;99.90;;;;;;4878658;28;96662;-32
2023/12/11 00:39:40;;;;;;;19.33;6.38;;;9.00;99.90;;;;;;4878891;28;94936;-34
2023/12/11 00:42:05;;;;;;;16.42;5.53;;;9.00;99.90;;;;;;4878825;28;94051;-32
2023/12/11 00:44:31;;;;;;;16.92;6.65;;;9.00;99.90;;;;;;4879488;28;92519;-32
2023/12/11 00:46:57;;;;;;;22.48;7.57;;;9.00;99.90;;;;;;4878255;28;94827;-30
2023/12/11 00:49:22;;;;;;;23.25;7.63;;;9.00;99.90;;;;;;4879506;28;95023;-32
2023/12/11 00:51:52;;;;;;;19.65;5.95;;;8.90;99.90;;;;;;4879272;28;93046;-30
2023/12/11 00:54:18;;;;;;;15.32;6.95;;;9.00;99.90;;;;;;4878897;28;94157;-34
2023/12/11 00:56:44;;;;;;;24.45;8.07;;;8.90;99.90;;;;;;4878632;28;95442;-31
2023/12/11 00:59:09;;;;;;;10.63;4.97;;;8.90;99.90;;;;;;4878757;28;95288;-30
2023/12/11 01:01:35;;;;;;;15.52;6.00;;;8.90;99.90;;;;;;4879373;28;92249;-31
2023/12/11 01:04:00;;;;;;;17.63;6.55;;;8.90;99.90;;;;;;4878604;28;94558;-31
2023/12/11 01:06:26;;;;;;;20.33;5.50;;;8.90;99.90;;;;;;4878301;28;95671;-34
2023/12/11 01:08:52;;;;;;;42.70;8.57;;;8.90;99.90;;;;;;4878949;28;95805;-34
2023/12/11 01:11:17;;;;;;;23.35;7.85;;;8.90;99.90;;;;;;4878504;28;94365;-35
2023/12/11 01:13:43;;;;;;;19.75;7.22;;;8.90;99.90;;;;;;4879463;28;92299;-32
2023/12/11 01:16:08;;;;;;;22.73;7.47;;;8.80;99.90;;;;;;4877536;28;95129;-32
2023/12/11 01:18:34;;;;;;;30.65;7.97;;;8.80;99.90;;;;;;4879468;28;94021;-32
2023/12/11 01:21:00;;;;;;;15.10;6.40;;;8.80;99.90;;;;;;4878276;28;94628;-31
2023/12/11 01:23:25;;;;;;;19.98;5.35;;;8.80;99.90;;;;;;4878467;28;93733;-34
2023/12/11 01:25:51;;;;;;;13.93;5.40;;;8.80;99.90;;;;;;4877990;28;94925;-33
2023/12/11 01:28:17;;;;;;;15.13;5.65;;;8.80;99.90;;;;;;4878694;28;94744;-33
2023/12/11 01:30:42;;;;;;;23.85;6.55;;;8.70;99.90;;;;;;4878500;28;95340;-34
2023/12/11 01:33:08;;;;;;;16.92;6.93;;;8.80;99.90;;;;;;4877910;28;93359;-32
2023/12/11 01:35:34;;;;;;;17.27;5.85;;;8.80;99.90;;;;;;4878277;28;95332;-33
2023/12/11 01:38:00;;;;;;;17.90;5.65;;;8.80;99.90;;;;;;4880951;28;95034;-34
2023/12/11 01:40:26;;;;;;;19.27;5.22;;;8.80;99.90;;;;;;4881770;28;92234;-32
2023/12/11 01:42:51;;;;;;;20.23;5.38;;;8.80;99.90;;;;;;4882461;28;93293;-32
2023/12/11 01:45:17;;;;;;;24.35;6.22;;;8.80;99.90;;;;;;4880703;28;94673;-32
2023/12/11 01:47:43;;;;;;;14.80;4.70;;;8.80;99.90;;;;;;4882225;28;95266;-30
2023/12/11 01:50:09;;;;;;;17.95;6.10;;;8.80;99.90;;;;;;4881294;28;94086;-32
2023/12/11 01:52:36;;;;;;;25.17;7.22;;;8.90;99.90;;;;;;4881704;28;93349;-31
2023/12/11 01:55:04;;;;;;;29.42;7.90;;;8.90;99.90;;;;;;4881309;28;96185;-32
2023/12/11 01:57:30;;;;;;;22.70;6.53;;;8.90;99.90;;;;;;4881723;28;95715;-32
2023/12/11 01:59:56;;;;;;;18.63;4.82;;;8.90;99.90;;;;;;4881427;28;92965;-30
2023/12/11 02:02:22;;;;;;;11.30;6.25;;;8.90;99.90;;;;;;4881353;28;93826;-31
2023/12/11 02:04:49;;;;;;;24.70;7.00;;;8.80;99.90;;;;;;4880952;28;93512;-32
2023/12/11 02:07:16;;;;;;;37.77;7.47;;;8.90;99.90;;;;;;4880567;28;95438;-30
2023/12/11 02:09:41;;;;;;;17.48;6.18;;;8.90;99.90;;;;;;4881668;28;93888;-34
2023/12/11 02:12:07;;;;;;;16.52;5.82;;;8.80;99.90;;;;;;4881173;28;93242;-34
2023/12/11 02:14:34;;;;;;;24.88;6.93;;;8.80;99.90;;;;;;4881006;28;95242;-31
2023/12/11 02:17:00;;;;;;;11.93;5.80;;;8.90;99.90;;;;;;4881589;28;94900;-30
2023/12/11 02:19:25;;;;;;;16.77;5.72;;;8.80;99.90;;;;;;4881195;28;94690;-34
2023/12/11 02:21:52;;;;;;;27.40;6.75;;;8.80;99.90;;;;;;4881467;28;92739;-33
2023/12/11 02:24:26;;;;;;;30.40;8.30;;;8.70;99.90;;;;;;4880580;28;95312;-34
2023/12/11 02:26:51;;;;;;;25.48;8.70;;;8.80;99.90;;;;;;4880590;28;94520;-31
2023/12/11 02:29:17;;;;;;;20.20;6.88;;;8.80;99.90;;;;;;4881196;28;94186;-31
2023/12/11 02:31:43;;;;;;;19.60;5.93;;;8.80;99.90;;;;;;4881143;28;93167;-34
2023/12/11 02:34:08;;;;;;;20.65;7.57;;;8.80;99.90;;;;;;4880008;28;94594;-34
2023/12/11 02:36:34;;;;;;;24.98;6.68;;;8.80;99.90;;;;;;4880901;28;93617;-31
2023/12/11 02:39:01;;;;;;;18.30;6.32;;;8.80;99.90;;;;;;4881165;28;92912;-32
2023/12/11 02:41:28;;;;;;;28.03;6.70;;;8.80;99.90;;;;;;4882379;28;93320;-33
2023/12/11 02:43:53;;;;;;;26.75;7.13;;;8.90;99.90;;;;;;4879635;28;95328;-34
2023/12/11 02:46:19;;;;;;;16.75;7.15;;;8.90;99.90;;;;;;4880831;28;96169;-34
2023/12/11 02:48:44;;;;;;;20.85;7.88;;;8.90;99.90;;;;;;4879689;28;94457;-32
2023/12/11 02:51:10;;;;;;;14.30;5.18;;;8.90;99.90;;;;;;4880284;28;93247;-31
2023/12/11 02:53:36;;;;;;;30.60;7.85;;;8.90;99.90;;;;;;4881251;28;94972;-30
2023/12/11 02:56:01;;;;;;;26.98;10.00;;;8.90;99.90;;;;;;4880063;28;94782;-31
2023/12/11 02:58:27;;;;;;;14.77;6.22;;;8.90;99.90;;;;;;4880167;28;92960;-33
2023/12/11 03:00:53;;;;;;;33.45;6.43;;;8.90;99.90;;;;;;4880300;28;91892;-34
2023/12/11 03:03:19;;;;;;;22.90;8.13;;;9.00;99.90;;;;;;4880342;28;94659;-32
2023/12/11 03:05:44;;;;;;;14.43;7.10;;;9.00;99.90;;;;;;4880943;28;94621;-31
2023/12/11 03:08:10;;;;;;;23.08;6.93;;;9.00;99.90;;;;;;4879995;28;96002;-34
2023/12/11 03:10:36;;;;;;;22.48;7.95;;;9.00;99.90;;;;;;4880897;28;94263;-29
2023/12/11 03:13:01;;;;;;;23.83;6.82;;;9.00;99.90;;;;;;4877822;28;95834;-31
2023/12/11 03:15:27;;;;;;;28.92;7.28;;;9.00;99.90;;;;;;4880860;28;94627;-33
2023/12/11 03:17:53;;;;;;;21.42;9.13;;;9.10;99.90;;;;;;4879981;28;93137;-36
2023/12/11 03:20:18;;;;;;;26.17;8.93;;;9.10;99.90;;;;;;4880787;28;93451;-32
2023/12/11 03:22:44;;;;;;;31.50;8.88;;;9.10;99.90;;;;;;4880387;28;95046;-32
2023/12/11 03:25:10;;;;;;;33.53;7.25;;;9.10;99.90;;;;;;4879846;28;94666;-33
2023/12/11 03:27:35;;;;;;;24.15;8.63;;;9.10;99.90;;;;;;4880499;28;93508;-34
2023/12/11 03:30:01;;;;;;;18.10;5.97;;;9.10;99.90;;;;;;4879808;28;92247;-34
2023/12/11 03:32:27;;;;;;;25.38;7.45;;;9.00;99.90;;;;;;4879698;28;96601;-33
2023/12/11 03:34:53;;;;;;;43.42;11.55;;;9.10;99.90;;;;;;4879833;28;96145;-35
2023/12/11 03:37:18;;;;;;;24.88;8.55;;;9.00;99.90;;;;;;4879488;28;92590;-32
2023/12/11 03:39:44;;;;;;;14.52;6.55;;;9.00;99.90;;;;;;4880592;28;93956;-31
2023/12/11 03:42:10;;;;;;;27.55;7.40;;;9.00;99.90;;;;;;4879301;28;95131;-31
2023/12/11 03:44:35;;;;;;;16.15;7.25;;;9.00;99.90;;;;;;4880240;28;94676;-32
2023/12/11 03:47:01;;;;;;;24.90;6.97;;;9.00;99.90;;;;;;4879228;28;94708;-33
2023/12/11 03:49:27;;;;;;;23.83;7.22;;;9.00;99.90;;;;;;4880481;28;93859;-34
2023/12/11 03:51:53;;;;;;;18.35;5.93;;;9.00;99.90;;;;;;4879844;28;95106;-33
2023/12/11 03:54:18;;;;;;;18.45;7.85;;;9.10;99.90;;;;;;4879585;28;96103;-32
2023/12/11 03:56:44;;;;;;;18.42;6.05;;;9.10;99.90;;;;;;4879808;28;95055;-32
2023/12/11 03:59:11;;;;;;;18.15;7.63;;;9.10;99.90;;;;;;4879290;28;92675;-33
2023/12/11 04:01:37;;;;;;;21.52;6.97;;;9.00;99.90;;;;;;4879540;28;95446;-31
2023/12/11 04:04:03;;;;;;;25.60;8.10;;;9.10;99.90;;;;;;4879340;28;94591;-31
2023/12/11 04:06:28;;;;;;;30.73;6.32;;;9.10;99.90;;;;;;4880080;28;92170;-32
2023/12/11 04:08:54;;;;;;;20.40;5.47;;;9.10;99.90;;;;;;4879918;28;93362;-33
2023/12/11 04:11:20;;;;;;;17.80;5.93;;;9.00;99.90;;;;;;4879335;28;94724;-32
2023/12/11 04:13:45;;;;;;;14.68;5.22;;;9.00;99.90;;;;;;4879859;28;94516;-35
2023/12/11 04:16:12;;;;;;;19.98;7.15;;;9.00;99.90;;;;;;4879427;28;94917;-31
2023/12/11 04:18:38;;;;;;;13.50;5.97;;;9.00;99.90;;;;;;4879542;28;92183;-32
2023/12/11 04:21:04;;;;;;;19.90;6.35;;;9.10;99.90;;;;;;4878747;28;96115;-30
2023/12/11 04:23:30;;;;;;;24.20;6.80;;;9.10;99.90;;;;;;4878759;28;97527;-33
2023/12/11 04:25:58;;;;;;;20.17;6.07;;;9.10;99.90;;;;;;4879486;28;93206;-30
2023/12/11 04:28:28;;;;;;;22.55;7.13;;;9.10;99.90;;;;;;4879587;28;93176;-32
2023/12/11 04:30:53;;;;;;;29.40;8.52;;;9.10;99.90;;;;;;4878760;28;94770;-34
2023/12/11 04:33:19;;;;;;;19.70;7.63;;;9.10;99.90;;;;;;4879150;28;95414;-32
2023/12/11 04:35:45;;;;;;;17.65;6.68;;;9.10;99.90;;;;;;4878998;28;93630;-31
2023/12/11 04:38:11;;;;;;;18.92;6.85;;;9.10;99.90;;;;;;4879603;28;92355;-31
2023/12/11 04:40:37;;;;;;;22.45;6.93;;;9.10;99.90;;;;;;4879015;28;95302;-32
2023/12/11 04:43:03;;;;;;;20.45;9.65;;;9.10;99.90;;;;;;4879576;28;94420;-32
2023/12/11 04:45:29;;;;;;;21.60;7.35;;;9.10;99.90;;;;;;4879436;28;94343;-33
2023/12/11 04:47:55;;;;;;;23.15;7.38;;;9.10;99.90;;;;;;4878752;28;93992;-34
2023/12/11 04:50:20;;;;;;;15.82;6.85;;;9.20;99.90;;;;;;4872794;28;95362;-30
2023/12/11 04:52:46;;;;;;;16.13;5.40;;;9.20;99.90;;;;;;4878641;28;95174;-34
2023/12/11 04:55:12;;;;;;;15.95;5.38;;;9.20;99.90;;;;;;4879443;28;93408;-32
2023/12/11 04:57:37;;;;;;;17.08;5.18;;;9.20;99.90;;;;;;4879335;28;92641;-32
2023/12/11 05:00:04;;;;;;;10.23;5.10;;;9.20;99.90;;;;;;4879141;28;95063;-32
2023/12/11 05:02:30;;;;;;;12.48;4.78;;;9.20;99.90;;;;;;4879006;28;95283;-34
2023/12/11 05:04:56;;;;;;;21.98;7.00;;;9.20;99.90;;;;;;4878530;28;93643;-33
2023/12/11 05:07:22;;;;;;;17.20;7.03;;;9.20;99.90;;;;;;4879323;28;93504;-34
2023/12/11 05:09:48;;;;;;;22.02;6.68;;;9.20;99.90;;;;;;4878219;28;95358;-34
2023/12/11 05:12:13;;;;;;;20.02;5.70;;;9.20;99.90;;;;;;4879954;28;95826;-33
2023/12/11 05:14:39;;;;;;;17.52;5.00;;;9.20;99.90;;;;;;4882524;28;94644;-31
2023/12/11 05:17:04;;;;;;;20.58;5.65;;;9.20;99.90;;;;;;4881310;28;93029;-31
2023/12/11 05:19:30;;;;;;;36.63;7.68;;;9.20;99.90;;;;;;4882283;28;94033;-32
2023/12/11 05:21:58;;;;;;;17.25;6.97;;;9.20;99.90;;;;;;4882140;28;94912;-33
2023/12/11 05:24:24;;;;;;;16.88;5.03;;;9.20;99.90;;;;;;4882045;28;94206;-31
2023/12/11 05:26:50;;;;;;;14.35;6.95;;;9.20;99.90;;;;;;4882906;28;92850;-33
2023/12/11 05:29:16;;;;;;;18.92;6.80;;;9.20;99.90;;;;;;4881247;28;94160;-30
2023/12/11 05:31:42;;;;;;;25.58;8.30;;;9.20;99.90;;;;;;4881963;28;95262;-35
2023/12/11 05:34:08;;;;;;;20.27;7.25;;;9.20;99.90;;;;;;4881898;28;95441;-31
2023/12/11 05:36:33;;;;;;;15.63;7.03;;;9.20;99.90;;;;;;4881305;28;94402;-33
2023/12/11 05:38:59;;;;;;;25.98;7.03;;;9.20;99.90;;;;;;4881130;28;94762;-34
2023/12/11 05:41:26;;;;;;;12.85;5.45;;;9.20;99.90;;;;;;4881445;28;94915;-33
2023/12/11 05:43:51;;;;;;;14.60;5.25;;;9.20;99.90;;;;;;4881510;28;94381;-34
2023/12/11 05:46:17;;;;;;;16.42;6.15;;;9.20;99.90;;;;;;4881953;28;94683;-33
2023/12/11 05:48:43;;;;;;;10.25;4.72;;;9.20;99.90;;;;;;4881269;28;94994;-31
2023/12/11 05:51:08;;;;;;;12.55;5.32;;;9.20;99.90;;;;;;4881552;28;94272;-32
2023/12/11 05:53:34;;;;;;;20.23;6.95;;;9.20;99.90;;;;;;4881564;28;94636;-33
2023/12/11 05:56:00;;;;;;;20.13;7.20;;;9.20;99.90;;;;;;4881703;28;93014;-32
2023/12/11 05:58:25;;;;;;;25.23;6.20;;;9.20;99.90;;;;;;4881096;28;96963;-32
2023/12/11 06:00:51;;;;;;;18.55;6.57;;;9.10;99.90;;;;;;4880889;28;95837;-32
2023/12/11 06:03:17;;;;;;;11.68;5.45;;;9.10;99.90;;;;;;4881865;28;93529;-34
2023/12/11 06:05:42;;;;;;;29.95;5.68;;;9.20;99.90;;;;;;4881488;28;93181;-34
2023/12/11 06:08:08;;;;;;;19.58;5.90;;;9.10;99.90;;;;;;4881514;28;94834;-33
2023/12/11 06:10:34;;;;;;;23.83;6.10;;;9.10;99.90;;;;;;4881576;28;94091;-31
2023/12/11 06:12:59;;;;;;;9.90;4.35;;;9.20;99.90;;;;;;4881190;28;93079;-34
2023/12/11 06:15:25;;;;;;;21.15;5.45;;;9.10;99.90;;;;;;4880779;28;93416;-33
2023/12/11 06:17:51;;;;;;;9.38;4.45;;;9.10;99.90;;;;;;4880565;28;96025;-31
2023/12/11 06:20:16;;;;;;;29.95;6.00;;;9.10;99.90;;;;;;4882018;28;94379;-32
2023/12/11 06:22:42;;;;;;;9.90;4.82;;;9.10;99.90;;;;;;4880059;28;93367;-34
2023/12/11 06:25:08;;;;;;;19.20;5.10;;;9.10;99.90;;;;;;4881125;28;93349;-31
2023/12/11 06:27:34;;;;;;;11.68;4.53;;;9.10;99.90;;;;;;4878800;28;94435;-31
2023/12/11 06:29:59;;;;;;;11.90;3.30;;;9.10;99.90;;;;;;4870095;28;94841;-32
2023/12/11 06:32:25;;;;;;;11.70;3.78;;;9.10;99.90;;;;;;4881800;28;94640;-31
2023/12/11 06:34:51;;;;;;;22.05;5.05;;;9.10;99.90;;;;;;4874512;28;93818;-33
2023/12/11 06:37:16;;;;;;;12.05;5.43;;;9.10;99.90;;;;;;4880180;28;94449;-32
2023/12/11 06:39:42;;;;;;;15.40;4.00;;;9.20;99.90;;;;;;4880585;28;96863;-32
2023/12/11 06:42:08;;;;;;;29.73;5.97;;;9.20;99.90;;;;;;4878287;28;93453;-31
2023/12/11 06:44:35;;;;;;;14.55;5.57;;;9.20;99.90;;;;;;4878983;28;92921;-31
2023/12/11 06:47:01;;;;;;;13.97;3.97;;;9.20;99.90;;;;;;4877601;28;96270;-31
2023/12/11 06:49:27;;;;;;;19.65;7.18;;;9.20;99.90;;;;;;4878760;28;95434;-35
2023/12/11 06:51:55;;;;;;;16.73;6.30;;;9.30;99.90;;;;;;4878148;28;93801;-32
2023/12/11 06:54:20;;;;;;;15.13;5.07;;;9.30;99.90;;;;;;4878378;28;93699;-31
2023/12/11 06:56:46;;;;;;;15.30;6.32;;;9.30;99.90;;;;;;4878570;28;94268;-34
2023/12/11 06:59:12;;;;;;;10.00;3.97;;;9.30;99.90;;;;;;4878558;28;96642;-33
2023/12/11 07:01:38;;;;;;;14.63;5.70;;;9.40;99.90;;;;;;4876978;28;93742;-34
2023/12/11 07:04:05;;;;;;;10.88;4.53;;;9.40;99.90;;;;;;4878600;28;93999;-31
2023/12/11 07:06:30;;;;;;;11.13;4.25;;;9.40;99.90;;;;;;4874940;28;95419;-32
2023/12/11 07:08:56;;;;;;;12.40;4.53;;;9.40;99.90;;;;;;4877854;28;93884;-30
2023/12/11 07:11:24;;;;;;;12.55;4.32;;;9.40;99.90;;;;;;4877844;28;95622;-33
2023/12/11 07:13:49;;;;;;;17.75;7.25;;;9.40;99.90;;;;;;4877850;28;93340;-34
2023/12/11 07:16:15;;;;;;;17.55;5.10;;;9.40;99.90;;;;;;4877881;28;94532;-34
2023/12/11 07:18:42;;;;;;;16.65;4.03;;;9.40;99.90;;;;;;4878760;28;96307;-31
2023/12/11 07:21:09;;;;;;;17.13;4.50;;;9.40;99.90;;;;;;4878123;28;93358;-33
2023/12/11 07:23:35;;;;;;;15.75;6.03;;;9.40;99.90;;;;;;4878044;28;92421;-31
2023/12/11 07:26:01;;;;;;;36.00;6.93;;;9.40;99.90;;;;;;4877824;28;94935;-31
2023/12/11 07:28:26;;;;;;;16.20;5.45;;;9.30;99.90;;;;;;4875479;28;95377;-33
2023/12/11 07:30:52;;;;;;;14.20;5.18;;;9.30;99.90;;;;;;4877341;28;93186;-31
2023/12/11 07:33:18;;;;;;;15.73;5.65;;;9.20;99.90;;;;;;4876574;28;94613;-33
2023/12/11 07:35:43;;;;;;;18.02;7.30;;;9.20;99.90;;;;;;4901061;23;96182;-34
2023/12/11 07:38:09;;;;;;;16.05;5.95;;;9.20;99.90;;;;;;4877075;28;95517;-34
2023/12/11 07:40:35;;;;;;;13.40;5.40;;;9.20;99.90;;;;;;4877689;28;94636;-35
2023/12/11 07:43:00;;;;;;;27.52;5.38;;;9.20;99.90;;;;;;4877798;28;93164;-31
2023/12/11 07:45:26;;;;;;;10.13;3.63;;;9.20;99.90;;;;;;4877327;28;94018;-33
2023/12/11 07:47:52;;;;;;;17.95;5.22;;;9.10;99.90;;;;;;4877506;28;94503;-36
2023/12/11 07:50:17;;;;;;;13.15;6.22;;;9.10;99.90;;;;;;4877709;28;93050;-31
2023/12/11 07:52:43;;;;;;;13.02;2.97;;;9.10;99.90;;;;;;4877879;28;92710;-31
2023/12/11 07:55:09;;;;;;;15.75;6.72;;;9.10;99.90;;;;;;4877379;28;93538;-34
2023/12/11 07:57:34;;;;;;;17.40;5.90;;;9.10;99.90;;;;;;4877682;28;94883;-31
2023/12/11 08:00:00;;;;;;;13.15;4.50;;;9.00;99.90;;;;;;4877684;28;95329;-31
2023/12/11 08:02:26;;;;;;;19.30;5.38;;;9.00;99.90;;;;;;4877132;28;93322;-32
2023/12/11 08:04:51;;;;;;;15.60;6.68;;;9.00;99.90;;;;;;4877464;28;93916;-31
2023/12/11 08:07:18;;;;;;;14.45;4.00;;;9.00;99.90;;;;;;4876983;28;96812;-31
2023/12/11 08:09:44;;;;;;;8.63;5.22;;;9.00;99.90;;;;;;4877625;28;94230;-32
2023/12/11 08:12:10;;;;;;;14.50;4.25;;;9.00;99.90;;;;;;4877597;28;94584;-33
2023/12/11 08:14:37;;;;;;;9.68;4.25;;;9.00;99.90;;;;;;4877095;28;95025;-33
2023/12/11 08:17:03;;;;;;;14.43;4.82;;;9.00;99.90;;;;;;4877475;28;94380;-35
2023/12/11 08:19:29;;;;;;;17.73;4.47;;;9.00;99.90;;;;;;4878078;28;94640;-35
2023/12/11 08:21:54;;;;;;;12.38;4.03;;;9.00;99.90;;;;;;4876924;28;92128;-34
2023/12/11 08:24:20;;;;;;;15.32;5.05;;;9.00;99.90;;;;;;4876934;28;96213;-32
2023/12/11 08:26:46;;;;;;;6.85;3.47;;;9.00;99.90;;;;;;4876977;28;96474;-32
2023/12/11 08:29:12;;;;;;;7.25;3.85;;;9.00;99.90;;;;;;4876962;28;92437;-35
2023/12/11 08:31:38;;;;;;;10.82;3.88;;;9.00;99.90;;;;;;4877984;28;94227;-33
2023/12/11 08:34:03;;;;;;;12.70;4.75;;;9.00;99.90;;;;;;4876411;28;95103;-32
2023/12/11 08:36:29;;;;;;;6.93;2.88;;;8.90;99.90;;;;;;4877220;28;94129;-33
2023/12/11 08:38:55;;;;;;;12.80;3.97;;;8.90;99.90;;;;;;4876536;28;94303;-34
2023/12/11 08:41:20;;;;;;;12.52;3.20;;;8.90;99.90;;;;;;4876792;28;93347;-31
2023/12/11 08:43:46;;;;;;;6.20;3.35;;;9.00;99.90;;;;;;4877135;28;96310;-33
2023/12/11 08:46:12;;;;;;;5.18;3.10;;;9.00;99.90;;;;;;4876920;28;93942;-33
2023/12/11 08:48:38;;;;;;;4.68;2.25;;;9.00;99.90;;;;;;4880085;28;93275;-33
2023/12/11 08:51:05;;;;;;;8.70;3.58;;;9.00;99.90;;;;;;4880119;28;94171;-33
2023/12/11 08:53:30;;;;;;;13.35;3.45;;;9.00;99.90;;;;;;4879937;28;95212;-31
2023/12/11 08:55:56;;;;;;;3.38;2.28;;;9.00;99.90;;;;;;4880892;28;94360;-34
2023/12/11 08:58:23;;;;;;;6.65;3.70;;;8.90;99.90;;;;;;4880123;28;92140;-34
2023/12/11 09:00:49;;;;;;;4.93;1.70;;;9.00;99.90;;;;;;4880731;28;94175;-33
2023/12/11 09:03:15;;;;;;;3.75;2.08;;;9.00;99.90;;;;;;4879519;28;95174;-33
2023/12/11 09:05:41;;;;;;;3.88;2.25;;;9.00;99.90;;;;;;4880386;28;94553;-31
2023/12/11 09:08:07;;;;;;;6.03;2.30;;;9.00;99.90;;;;;;4880089;28;92232;-32
2023/12/11 09:10:34;;;;;;;2.05;1.75;;;9.00;99.90;;;;;;4880270;28;94531;-31
2023/12/11 09:13:00;;;;;;;6.72;2.83;;;8.90;99.90;;;;;;4879006;28;96107;-35
2023/12/11 09:15:25;;;;;;;5.55;1.42;;;9.00;99.90;;;;;;4880130;28;95253;-32
2023/12/11 09:17:51;;;;;;;2.58;1.85;;;9.00;99.90;;;;;;4879081;28;93784;-33
2023/12/11 09:20:17;;;;;;;3.17;1.88;;;9.00;99.90;;;;;;4880306;28;93287;-33
2023/12/11 09:22:43;;;;;;;3.20;1.85;;;9.00;99.90;;;;;;4879441;28;95926;-31
2023/12/11 09:25:09;;;;;;;3.33;1.55;;;9.00;99.90;;;;;;4880129;28;95257;-32
2023/12/11 09:27:34;;;;;;;4.47;2.10;;;9.00;99.90;;;;;;4879869;28;92587;-32
2023/12/11 09:30:00;;;;;;;2.97;1.88;;;9.10;99.90;;;;;;4879748;28;93249;-32
2023/12/11 09:32:27;;;;;;;4.50;2.03;;;9.10;99.90;;;;;;4879798;28;94915;-32
2023/12/11 09:34:53;;;;;;;1.95;1.67;;;9.10;99.90;;;;;;4880245;28;94583;-35
2023/12/11 09:37:19;;;;;;;3.75;1.48;;;9.10;99.90;;;;;;4879268;28;95450;-34
2023/12/11 09:39:47;;;;;;;2.95;2.20;;;9.10;99.90;;;;;;4880119;28;95015;-33
2023/12/11 09:42:14;;;;;;;4.22;2.25;;;9.10;99.90;;;;;;4878985;28;95897;-32
2023/12/11 09:44:47;;;;;;;3.72;2.65;;;9.20;99.90;;;;;;4879164;28;95243;-33
2023/12/11 09:47:38;;;;;;;4.28;1.67;;;9.20;99.90;;;;;;4880358;28;92919;-30
2023/12/11 09:50:05;;;;;;;5.65;2.65;;;9.20;99.90;;;;;;4880029;28;92860;-32
2023/12/11 09:52:30;;;;;;;3.35;1.73;;;9.30;99.90;;;;;;4879674;28;94673;-32
2023/12/11 09:54:56;;;;;;;10.15;2.83;;;9.30;99.90;;;;;;4879347;28;95416;-33
2023/12/11 09:57:22;;;;;;;6.45;2.55;;;9.30;99.90;;;;;;4879134;28;93893;-31
2023/12/11 09:59:50;;;;;;;3.00;2.67;;;9.40;99.90;;;;;;4879848;28;93078;-32
2023/12/11 10:02:17;;;;;;;8.75;2.70;;;9.40;99.90;;;;;;4867554;28;96708;-32
2023/12/11 10:05:06;;;;;;;10.65;3.40;;;9.50;99.90;;;;;;4878954;28;96100;-35
2023/12/11 10:07:32;;;;;;;7.15;2.53;;;9.50;99.90;;;;;;4878843;28;92549;-34
2023/12/11 10:09:59;;;;;;;10.00;3.38;;;9.50;99.90;;;;;;4879511;28;94426;-34
2023/12/11 10:12:25;;;;;;;5.47;2.90;;;9.50;99.90;;;;;;4878832;28;94339;-31
2023/12/11 10:15:01;;;;;;;4.55;2.03;;;9.50;99.90;;;;;;4879022;28;94520;-35
2023/12/11 10:17:27;;;;;;;3.70;1.95;;;9.50;99.90;;;;;;4872151;28;94162;-34
2023/12/11 10:19:53;;;;;;;4.93;2.85;;;9.50;99.90;;;;;;4878230;28;91498;-32
2023/12/11 10:22:27;;;;;;;2.08;1.95;;;9.50;99.90;;;;;;4878929;28;95100;-33
2023/12/11 10:24:53;;;;;;;6.18;2.25;;;9.50;99.90;;;;;;4873968;28;93815;-34
2023/12/11 10:27:23;;;;;;;7.63;2.08;;;9.50;99.90;;;;;;4878411;28;95166;-36
2023/12/11 10:30:07;;;;;;;4.88;2.30;;;9.50;99.90;;;;;;4879146;28;95104;-34
2023/12/11 10:32:33;;;;;;;19.00;3.97;;;9.50;99.90;;;;;;4878888;28;94711;-31
2023/12/11 10:34:59;;;;;;;3.90;2.03;;;9.50;99.90;;;;;;4878147;28;94963;-32
2023/12/11 10:37:32;;;;;;;7.72;3.50;;;9.50;99.90;;;;;;4879378;28;94790;-31
2023/12/11 10:39:58;;;;;;;4.68;2.83;;;9.50;99.90;;;;;;4878691;28;94092;-33
2023/12/11 10:42:25;;;;;;;3.40;2.05;;;9.50;99.90;;;;;;4878641;28;95166;-31
2023/12/11 10:44:51;;;;;;;3.67;2.63;;;9.50;99.90;;;;;;4879310;28;95748;-33
2023/12/11 10:47:17;;;;;;;3.88;1.55;;;9.50;99.90;;;;;;4878273;28;93124;-31
2023/12/11 10:49:44;;;;;;;7.03;1.30;;;9.50;99.90;;;;;;4879424;28;94506;-33
2023/12/11 10:52:09;;;;;;;5.78;2.20;;;9.50;99.90;;;;;;4877104;28;96070;-33
2023/12/11 10:54:37;;;;;;;11.30;3.22;;;9.50;99.90;;;;;;4878303;28;95518;-34
2023/12/11 10:57:05;;;;;;;4.38;1.45;;;9.50;99.90;;;;;;4878641;28;94400;-32
2023/12/11 10:59:34;;;;;;;3.60;2.28;;;9.60;99.90;;;;;;4879301;28;94769;-32
2023/12/11 11:02:01;;;;;;;7.65;1.98;;;9.50;99.90;;;;;;4877740;28;94754;-33
2023/12/11 11:04:30;;;;;;;15.40;2.50;;;9.50;99.90;;;;;;4876903;28;94185;-34
2023/12/11 11:07:02;;;;;;;6.10;2.38;;;9.50;99.90;;;;;;4878146;28;92992;-31
2023/12/11 11:09:59;;;;;;;3.92;1.92;;;9.60;99.90;;;;;;4878142;28;93645;-30
2023/12/11 11:12:57;;;;;;;12.13;2.65;;;9.60;99.90;;;;;;4869857;28;94722;-34
2023/12/11 11:15:24;;;;;;;12.48;3.08;;;9.70;99.90;;;;;;4867190;28;96614;-32
2023/12/11 11:17:59;;;;;;;5.85;2.28;;;9.70;99.90;;;;;;4877456;28;95196;-33
2023/12/11 11:20:27;;;;;;;7.50;2.53;;;9.60;99.90;;;;;;4879424;28;94673;-32
2023/12/11 11:23:20;;;;;;;8.53;3.90;;;9.60;99.90;;;;;;4878094;28;93774;-34
2023/12/11 11:25:53;;;;;;;5.03;1.98;;;9.60;99.90;;;;;;4872725;28;93891;-32
2023/12/11 11:28:38;;;;;;;8.38;3.47;;;9.60;99.90;;;;;;4878416;28;94484;-33
2023/12/11 11:31:05;;;;;;;4.55;1.85;;;9.60;99.90;;;;;;4878169;28;94197;-32
2023/12/11 11:33:51;;;;;;;7.60;2.45;;;9.50;99.90;;;;;;4877704;28;94493;-33
2023/12/11 11:36:19;;;;;;;5.57;2.47;;;9.50;99.90;;;;;;4877713;28;95632;-32
2023/12/11 11:38:56;;;;;;;3.97;2.43;;;9.50;99.90;;;;;;4877999;28;93037;-31
2023/12/11 11:41:23;;;;;;;4.25;1.75;;;9.50;99.90;;;;;;4878058;28;93017;-32
2023/12/11 11:44:07;;;;;;;6.30;2.38;;;9.50;99.90;;;;;;4876936;28;95715;-31
2023/12/11 11:46:55;;;;;;;7.07;2.88;;;9.40;99.90;;;;;;4877626;28;95537;-32
2023/12/11 11:49:28;;;;;;;6.25;2.80;;;9.40;99.90;;;;;;4877650;28;93001;-33
2023/12/11 11:51:53;;;;;;;9.48;3.22;;;9.40;99.90;;;;;;4877598;28;93369;-32
2023/12/11 11:54:22;;;;;;;14.25;5.07;;;9.40;99.90;;;;;;4877365;28;94393;-34
2023/12/11 11:56:48;;;;;;;6.45;2.10;;;9.40;99.90;;;;;;4877409;28;93448;-32
2023/12/11 11:59:13;;;;;;;5.32;2.60;;;9.40;99.90;;;;;;4877752;28;92549;-31
2023/12/11 12:01:53;;;;;;;6.18;3.38;;;9.40;99.90;;;;;;4877510;28;94082;-33
2023/12/11 12:04:29;;;;;;;3.65;1.90;;;9.40;99.90;;;;;;4877475;28;96281;-32
2023/12/11 12:06:57;;;;;;;9.65;1.95;;;9.50;99.90;;;;;;4877917;28;94999;-31
2023/12/11 12:09:23;;;;;;;6.70;3.30;;;9.40;99.90;;;;;;4877935;28;93614;-33
2023/12/11 12:11:49;;;;;;;6.13;2.70;;;9.40;99.90;;;;;;4876929;28;92553;-33
2023/12/11 12:14:15;;;;;;;7.53;1.92;;;9.40;99.90;;;;;;4877078;28;93526;-34
2023/12/11 12:16:41;;;;;;;5.30;2.53;;;9.40;99.90;;;;;;4877786;28;94533;-33
2023/12/11 12:19:06;;;;;;;12.00;3.20;;;9.40;99.90;;;;;;4877403;28;92671;-33
2023/12/11 12:21:49;;;;;;;7.68;3.40;;;9.40;99.90;;;;;;4877025;28;94460;-33
2023/12/11 12:24:15;;;;;;;5.15;2.17;;;9.40;99.90;;;;;;4875904;28;94967;-32
2023/12/11 12:26:42;;;;;;;6.20;2.90;;;9.30;99.90;;;;;;4877231;28;94046;-35
2023/12/11 12:29:09;;;;;;;10.98;3.05;;;9.30;99.90;;;;;;4877259;28;94181;-32
2023/12/11 12:31:38;;;;;;;9.82;3.45;;;9.30;99.90;;;;;;4877357;28;93795;-34
2023/12/11 12:34:05;;;;;;;11.57;4.10;;;9.40;99.90;;;;;;4875963;28;94851;-31
2023/12/11 12:36:31;;;;;;;9.60;5.22;;;9.30;99.90;;;;;;4876961;28;95576;-32
2023/12/11 12:38:57;;;;;;;12.75;3.40;;;9.30;99.90;;;;;;4877600;28;92208;-31
2023/12/11 12:41:22;;;;;;;12.27;3.85;;;9.30;99.90;;;;;;4877965;28;94838;-35
2023/12/11 12:43:48;;;;;;;15.40;3.53;;;9.30;99.90;;;;;;4876019;28;95355;-32
2023/12/11 12:46:14;;;;;;;13.10;4.32;;;9.20;99.90;;;;;;4876242;28;94273;-33
2023/12/11 12:48:40;;;;;;;5.95;3.55;;;9.20;99.90;;;;;;4878062;28;93262;-32